Terminal Aerodrome Forecast
Issued by NWS Mt. Holly, NJ

Home | Current Version | Previous Version | Text Only | Print | Product List | Glossary On
Versions: 1 2 3 4 5 6 7 8 9 10 11 12 13 14 15 16 17 18 19 20 21 22 23
000
FTUS41 KPHI 230500
TAFTTN
TAF
KTTN 230533Z 2306/2406 01015G23KT 6SM -RA SCT015 OVC025
     FM230800 35015G23KT P6SM -RA OVC015
     FM231600 35017G30KT P6SM OVC025
      TEMPO 2316/2318 P6SM -RA OVC015
     FM232100 34012G21KT P6SM SCT025 OVC050
     FM240300 33012KT P6SM SCT030 OVC050=

USA.gov is the U.S. government's official web portal to all federal, state and local government web resources and services.